createdAt,value
2023-01-22T00:00:37.749Z,0
2023-01-22T00:01:17.289Z,0
2023-01-22T00:02:16.683Z,0
2023-01-22T00:03:16.806Z,0
2023-01-22T00:04:16.835Z,0
2023-01-22T00:05:17.102Z,0
2023-01-22T00:06:16.564Z,0
2023-01-22T00:07:16.466Z,0
2023-01-22T00:08:16.662Z,0
2023-01-22T00:09:16.753Z,0
2023-01-22T00:10:17.536Z,0
2023-01-22T00:11:16.287Z,0
2023-01-22T00:12:16.474Z,0
2023-01-22T00:13:16.727Z,0
2023-01-22T00:14:16.502Z,0
2023-01-22T00:15:16.881Z,0
2023-01-22T00:16:16.816Z,0
2023-01-22T00:17:16.384Z,0
2023-01-22T00:18:16.473Z,0
2023-01-22T00:19:16.383Z,0
2023-01-22T00:20:16.592Z,0
2023-01-22T00:21:16.803Z,0
2023-01-22T00:22:16.955Z,0
2023-01-22T00:23:16.760Z,0
2023-01-22T00:24:16.627Z,0
2023-01-22T00:25:16.181Z,0
2023-01-22T00:26:16.385Z,0
2023-01-22T00:27:16.413Z,0
2023-01-22T00:28:16.639Z,0
2023-01-22T00:29:16.762Z,0
2023-01-22T00:30:17.282Z,0
2023-01-22T00:31:16.636Z,0
2023-01-22T00:32:16.548Z,0
2023-01-22T00:33:16.397Z,0
2023-01-22T00:34:16.639Z,0
2023-01-22T00:35:16.797Z,0.109
2023-01-22T00:36:16.904Z,0
2023-01-22T00:37:16.728Z,0
2023-01-22T00:38:16.786Z,0
2023-01-22T00:39:16.812Z,0
2023-01-22T00:40:17.127Z,0.109
2023-01-22T00:41:16.300Z,0
2023-01-22T00:42:16.463Z,0
2023-01-22T00:43:16.539Z,0
2023-01-22T00:44:16.430Z,0
2023-01-22T00:45:16.716Z,0
2023-01-22T00:46:16.741Z,0
2023-01-22T00:47:16.523Z,0
2023-01-22T00:48:16.390Z,0
2023-01-22T00:49:16.532Z,0
2023-01-22T00:50:17.036Z,0
2023-01-22T00:51:16.137Z,0
2023-01-22T00:52:16.321Z,0
2023-01-22T00:53:16.228Z,0
2023-01-22T00:54:16.237Z,0
2023-01-22T00:55:16.174Z,0
2023-01-22T00:56:16.059Z,0
2023-01-22T00:57:16.350Z,0
2023-01-22T00:58:16.191Z,0
2023-01-22T00:59:16.436Z,0
2023-01-22T01:00:17.533Z,0
2023-01-22T01:01:18.750Z,0
2023-01-22T01:03:16.416Z,0
2023-01-22T01:04:16.141Z,0
2023-01-22T01:05:16.449Z,0
2023-01-22T01:06:16.289Z,0
2023-01-22T01:07:16.332Z,0
2023-01-22T01:08:16.682Z,0
2023-01-22T01:09:16.425Z,0
2023-01-22T01:10:16.859Z,0
2023-01-22T01:11:16.832Z,0
2023-01-22T01:12:16.774Z,0
2023-01-22T01:13:16.821Z,0
2023-01-22T01:14:16.587Z,0
2023-01-22T01:15:16.724Z,0.109
2023-01-22T01:16:16.480Z,0
2023-01-22T01:17:17.055Z,0
2023-01-22T01:18:16.352Z,0
2023-01-22T01:19:16.691Z,0
2023-01-22T01:20:16.948Z,0
2023-01-22T01:21:16.318Z,0
2023-01-22T01:22:16.434Z,0
2023-01-22T01:23:16.662Z,0
2023-01-22T01:24:16.776Z,0
2023-01-22T01:25:16.804Z,0
2023-01-22T01:26:16.859Z,0
2023-01-22T01:27:16.817Z,0
2023-01-22T01:28:16.673Z,0
2023-01-22T01:29:16.738Z,0
2023-01-22T01:30:17.283Z,0
2023-01-22T01:31:16.871Z,0
2023-01-22T01:32:16.999Z,0
2023-01-22T01:33:16.628Z,0
2023-01-22T01:34:16.895Z,0.109
2023-01-22T01:35:16.727Z,0
2023-01-22T01:36:17.226Z,0
2023-01-22T01:37:16.689Z,0
2023-01-22T01:38:16.585Z,0
2023-01-22T01:39:16.571Z,0
2023-01-22T01:40:16.947Z,0
2023-01-22T01:41:16.860Z,0
2023-01-22T01:42:16.914Z,0
2023-01-22T01:43:16.754Z,0
2023-01-22T01:44:16.468Z,0
2023-01-22T01:45:16.553Z,0
2023-01-22T01:46:16.552Z,0
2023-01-22T01:47:16.692Z,0
2023-01-22T01:48:16.870Z,0
2023-01-22T01:49:16.959Z,0
2023-01-22T01:50:17.102Z,0
2023-01-22T01:51:16.418Z,0
2023-01-22T01:52:16.229Z,0
2023-01-22T01:53:17.014Z,0
2023-01-22T01:54:16.689Z,0
2023-01-22T01:55:21.827Z,0
2023-01-22T01:56:16.244Z,0
2023-01-22T01:57:16.270Z,0
2023-01-22T01:58:16.331Z,0
2023-01-22T01:59:16.256Z,0
2023-01-22T02:00:17.334Z,0
2023-01-22T02:01:16.794Z,0
2023-01-22T02:02:16.740Z,0
2023-01-22T02:03:16.862Z,0.109
2023-01-22T02:04:16.203Z,0
2023-01-22T02:05:16.443Z,0
2023-01-22T02:06:16.556Z,0
2023-01-22T02:07:16.650Z,0
2023-01-22T02:08:17.214Z,0
2023-01-22T02:09:16.299Z,0
2023-01-22T02:10:16.833Z,0
2023-01-22T02:11:16.301Z,0
2023-01-22T02:12:16.414Z,0
2023-01-22T02:13:16.386Z,0
2023-01-22T02:14:16.387Z,0.109
2023-01-22T02:15:17.361Z,0
2023-01-22T02:16:16.492Z,0
2023-01-22T02:17:16.899Z,0
2023-01-22T02:18:16.672Z,0
2023-01-22T02:19:16.640Z,0.109
2023-01-22T02:20:17.121Z,0
2023-01-22T02:21:16.353Z,0
2023-01-22T02:22:16.388Z,0
2023-01-22T02:23:16.819Z,0.109
2023-01-22T02:24:16.575Z,0
2023-01-22T02:25:16.680Z,0.109
2023-01-22T02:26:16.758Z,0.109
2023-01-22T02:27:16.720Z,0
2023-01-22T02:28:16.517Z,0
2023-01-22T02:29:16.758Z,0
2023-01-22T02:30:17.258Z,0
2023-01-22T02:31:16.801Z,0
2023-01-22T02:32:16.930Z,0
2023-01-22T02:33:16.793Z,0
2023-01-22T02:34:16.882Z,0
2023-01-22T02:35:16.981Z,0.109
2023-01-22T02:36:16.525Z,0
2023-01-22T02:37:16.477Z,0
2023-01-22T02:38:16.522Z,0
2023-01-22T02:39:16.473Z,0
2023-01-22T02:40:16.787Z,0
2023-01-22T02:41:16.939Z,0.109
2023-01-22T02:42:17.367Z,0
2023-01-22T02:43:16.455Z,0
2023-01-22T02:44:16.584Z,0
2023-01-22T02:45:16.830Z,0
2023-01-22T02:46:16.637Z,0
2023-01-22T02:47:16.491Z,0
2023-01-22T02:48:16.853Z,0
2023-01-22T02:49:16.185Z,0
2023-01-22T02:50:16.828Z,0
2023-01-22T02:51:16.732Z,0
2023-01-22T02:52:16.516Z,0
2023-01-22T02:53:16.811Z,0.109
2023-01-22T02:54:16.717Z,0
2023-01-22T02:55:16.681Z,0
2023-01-22T02:56:16.501Z,0
2023-01-22T02:57:16.609Z,0
2023-01-22T02:58:16.660Z,0
2023-01-22T02:59:16.642Z,0
2023-01-22T03:00:17.678Z,0
2023-01-22T03:01:16.496Z,0
2023-01-22T03:02:17.014Z,0
2023-01-22T03:03:16.742Z,0
2023-01-22T03:04:17.114Z,0
2023-01-22T03:05:17.095Z,0
2023-01-22T03:06:16.213Z,0
2023-01-22T03:07:16.301Z,0
2023-01-22T03:08:16.366Z,0
2023-01-22T03:09:16.475Z,0
2023-01-22T03:10:16.946Z,0
2023-01-22T03:11:16.447Z,0
2023-01-22T03:12:16.414Z,0.119
2023-01-22T03:13:16.393Z,0
2023-01-22T03:14:16.351Z,0
2023-01-22T03:15:17.174Z,0
2023-01-22T03:16:16.230Z,0
2023-01-22T03:17:16.241Z,0
2023-01-22T03:18:16.056Z,0
2023-01-22T03:19:16.987Z,0
2023-01-22T03:20:17.112Z,0
2023-01-22T03:21:16.188Z,0
2023-01-22T03:22:16.205Z,0
2023-01-22T03:23:16.290Z,0
2023-01-22T03:24:16.225Z,0
2023-01-22T03:25:16.292Z,0
2023-01-22T03:26:16.238Z,0
2023-01-22T03:27:16.429Z,0
2023-01-22T03:28:16.435Z,0
2023-01-22T03:29:16.524Z,0
2023-01-22T03:30:17.081Z,0.109
2023-01-22T03:31:16.682Z,0
2023-01-22T03:32:16.902Z,0
2023-01-22T03:33:15.979Z,0
2023-01-22T03:34:16.910Z,0
2023-01-22T03:35:17.196Z,0
2023-01-22T03:36:16.369Z,0
2023-01-22T03:37:16.328Z,0
2023-01-22T03:38:16.029Z,0
2023-01-22T03:39:17.061Z,0
2023-01-22T03:40:17.275Z,0
2023-01-22T03:41:16.432Z,0
2023-01-22T03:42:16.396Z,0
2023-01-22T03:43:16.798Z,0
2023-01-22T03:44:16.849Z,0
2023-01-22T03:45:16.984Z,0
2023-01-22T03:46:16.885Z,0
2023-01-22T03:47:16.480Z,0
2023-01-22T03:48:16.759Z,0
2023-01-22T03:49:16.490Z,0
2023-01-22T03:50:16.954Z,0
2023-01-22T03:51:16.624Z,0
2023-01-22T03:52:16.709Z,0
2023-01-22T03:53:16.694Z,0
2023-01-22T03:54:16.482Z,0
2023-01-22T03:55:16.636Z,0
2023-01-22T03:56:16.585Z,0
2023-01-22T03:57:16.528Z,0
2023-01-22T03:58:16.428Z,0
2023-01-22T03:59:16.521Z,0
2023-01-22T04:00:17.807Z,0
2023-01-22T04:01:16.492Z,0
2023-01-22T04:02:16.780Z,0
2023-01-22T04:03:16.578Z,0
2023-01-22T04:04:16.605Z,0
2023-01-22T04:05:16.631Z,0
2023-01-22T04:06:16.587Z,0
2023-01-22T04:07:16.487Z,0
2023-01-22T04:08:16.298Z,0
2023-01-22T04:09:16.436Z,0
2023-01-22T04:10:16.959Z,0
2023-01-22T04:11:16.720Z,0
2023-01-22T04:12:16.524Z,0
2023-01-22T04:13:16.606Z,0
2023-01-22T04:14:16.653Z,0
2023-01-22T04:15:16.914Z,0
2023-01-22T04:16:16.691Z,0
2023-01-22T04:17:16.857Z,0
2023-01-22T04:18:16.769Z,0
2023-01-22T04:19:16.781Z,0
2023-01-22T04:20:17.236Z,0
2023-01-22T04:21:16.465Z,0
2023-01-22T04:22:16.388Z,0
2023-01-22T04:23:16.529Z,0
2023-01-22T04:24:16.701Z,0
2023-01-22T04:25:16.993Z,0
2023-01-22T04:26:16.677Z,0
2023-01-22T04:27:16.829Z,0
2023-01-22T04:28:16.559Z,0.100
2023-01-22T04:29:16.523Z,0
2023-01-22T04:30:17.137Z,0
2023-01-22T04:31:16.526Z,0
2023-01-22T04:32:16.986Z,0
2023-01-22T04:33:17.019Z,0
2023-01-22T04:34:17.060Z,0
2023-01-22T04:35:16.653Z,0
2023-01-22T04:36:16.638Z,0.109
2023-01-22T04:37:16.296Z,0
2023-01-22T04:38:30.298Z,0
2023-01-22T04:39:16.669Z,0
2023-01-22T04:40:30.843Z,0
2023-01-22T04:41:16.475Z,0
2023-01-22T04:42:16.461Z,0
2023-01-22T04:43:16.687Z,0
2023-01-22T04:44:16.898Z,0
2023-01-22T04:45:17.280Z,0
2023-01-22T04:46:16.585Z,0
2023-01-22T04:47:16.878Z,0
2023-01-22T04:48:16.949Z,0
2023-01-22T04:49:16.330Z,0
2023-01-22T04:50:16.780Z,0.109
2023-01-22T04:51:16.815Z,0
2023-01-22T04:52:15.844Z,0
2023-01-22T04:53:16.576Z,0
2023-01-22T04:54:16.572Z,0
2023-01-22T04:55:16.863Z,0
2023-01-22T04:56:16.706Z,0
2023-01-22T04:57:16.569Z,0
2023-01-22T04:58:16.755Z,0
2023-01-22T04:59:16.420Z,0
2023-01-22T05:00:17.679Z,0
2023-01-22T05:01:16.719Z,0.109
2023-01-22T05:02:16.867Z,0
2023-01-22T05:03:16.791Z,0
2023-01-22T05:04:16.703Z,0.109
2023-01-22T05:05:16.943Z,0.219
2023-01-22T05:06:16.294Z,0
2023-01-22T05:07:16.768Z,0.109
2023-01-22T05:08:16.797Z,0
2023-01-22T05:09:16.994Z,0
2023-01-22T05:10:17.237Z,0
2023-01-22T05:11:16.571Z,0
2023-01-22T05:12:16.486Z,0
2023-01-22T05:13:16.467Z,0
2023-01-22T05:14:16.553Z,0
2023-01-22T05:15:24.136Z,0
2023-01-22T05:16:17.089Z,0
2023-01-22T05:17:16.777Z,0
2023-01-22T05:18:16.509Z,0.109
2023-01-22T05:19:16.515Z,0.109
2023-01-22T05:20:17.007Z,0
2023-01-22T05:21:16.533Z,0.109
2023-01-22T05:22:16.934Z,0
2023-01-22T05:23:16.521Z,0
2023-01-22T05:24:16.700Z,0
2023-01-22T05:25:17.269Z,0.109
2023-01-22T05:26:16.646Z,0
2023-01-22T05:27:16.925Z,0
2023-01-22T05:28:16.384Z,0
2023-01-22T05:29:16.789Z,0
2023-01-22T05:30:17.369Z,0
2023-01-22T05:31:16.935Z,0
2023-01-22T05:32:16.228Z,0.109
2023-01-22T05:33:16.615Z,0.219
2023-01-22T05:34:16.738Z,0.109
2023-01-22T05:35:17.141Z,0
2023-01-22T05:36:16.423Z,0
2023-01-22T05:37:16.521Z,0
2023-01-22T05:38:16.897Z,0
2023-01-22T05:39:16.874Z,0
2023-01-22T05:40:16.673Z,0
2023-01-22T05:41:16.590Z,0
2023-01-22T05:42:16.682Z,0
2023-01-22T05:43:16.951Z,0
2023-01-22T05:44:16.253Z,0
2023-01-22T05:45:16.989Z,0
2023-01-22T05:46:17.062Z,0
2023-01-22T05:47:16.609Z,0
2023-01-22T05:48:16.724Z,0.200
2023-01-22T05:49:17.021Z,0
2023-01-22T05:50:17.106Z,0
2023-01-22T05:51:16.967Z,0.100
2023-01-22T05:52:16.375Z,0
2023-01-22T05:53:16.744Z,0
2023-01-22T05:54:16.776Z,0
2023-01-22T05:55:16.978Z,0
2023-01-22T05:56:16.904Z,0
2023-01-22T05:57:16.386Z,0.109
2023-01-22T05:58:16.372Z,0
2023-01-22T05:59:16.730Z,0
2023-01-22T06:00:17.949Z,0
2023-01-22T06:01:16.599Z,0
2023-01-22T06:02:17.284Z,0
2023-01-22T06:03:16.762Z,0.109
2023-01-22T06:04:17.099Z,0
2023-01-22T06:05:16.636Z,0
2023-01-22T06:06:16.906Z,0
2023-01-22T06:07:16.721Z,0
2023-01-22T06:08:16.481Z,0.109
2023-01-22T06:09:17.072Z,0
2023-01-22T06:10:17.144Z,0
2023-01-22T06:11:16.694Z,0.219
2023-01-22T06:12:17.168Z,0
2023-01-22T06:13:16.540Z,0
2023-01-22T06:14:16.983Z,0
2023-01-22T06:15:16.692Z,0
2023-01-22T06:16:17.005Z,0
2023-01-22T06:17:16.830Z,0
2023-01-22T06:18:17.228Z,0
2023-01-22T06:19:16.748Z,0
2023-01-22T06:20:17.486Z,0
2023-01-22T06:21:16.966Z,0
2023-01-22T06:22:16.976Z,0.109
2023-01-22T06:23:16.857Z,0
2023-01-22T06:24:16.600Z,0.219
2023-01-22T06:25:17.148Z,0.109
2023-01-22T06:26:16.756Z,0
2023-01-22T06:27:17.111Z,0
2023-01-22T06:28:17.042Z,0
2023-01-22T06:29:17.111Z,0
2023-01-22T06:30:17.184Z,0
2023-01-22T06:31:16.720Z,0
2023-01-22T06:32:16.720Z,0
2023-01-22T06:33:17.113Z,0
2023-01-22T06:34:16.624Z,0
2023-01-22T06:35:16.725Z,0.219
2023-01-22T06:36:17.130Z,0.109
2023-01-22T06:37:16.840Z,0
2023-01-22T06:38:16.709Z,0
2023-01-22T06:39:16.970Z,0
2023-01-22T06:40:17.207Z,0
2023-01-22T06:41:16.740Z,0
2023-01-22T06:42:17.160Z,0
2023-01-22T06:43:16.740Z,0
2023-01-22T06:44:17.313Z,0.109
2023-01-22T06:45:17.346Z,0
2023-01-22T06:46:16.983Z,0
2023-01-22T06:47:16.840Z,0
2023-01-22T06:48:16.651Z,0
2023-01-22T06:49:16.939Z,0
2023-01-22T06:50:19.093Z,0
2023-01-22T06:51:17.471Z,0
2023-01-22T06:52:16.832Z,0
2023-01-22T06:53:17.390Z,0
2023-01-22T06:54:16.968Z,13600
2023-01-22T06:55:17.523Z,0
2023-01-22T06:56:17.219Z,13600
2023-01-22T06:57:16.797Z,13600
2023-01-22T06:58:17.364Z,13600
2023-01-22T06:59:16.733Z,13600
2023-01-22T07:00:18.224Z,0
2023-01-22T07:01:16.496Z,0
2023-01-22T07:02:16.910Z,13600
2023-01-22T07:03:17.014Z,13600
2023-01-22T07:04:16.596Z,13600
2023-01-22T07:05:17.092Z,13600
2023-01-22T07:06:16.675Z,13600
2023-01-22T07:07:16.375Z,0
2023-01-22T07:08:16.574Z,0
2023-01-22T07:09:16.881Z,0
2023-01-22T07:10:17.276Z,0
2023-01-22T07:11:16.770Z,0
2023-01-22T07:12:16.090Z,0.109
2023-01-22T07:13:17.188Z,0.680
2023-01-22T07:14:21.358Z,0.680
2023-01-22T07:15:16.678Z,0.680
2023-01-22T07:16:16.899Z,0.959
2023-01-22T07:17:16.564Z,0.899
2023-01-22T07:18:16.772Z,0.449
2023-01-22T07:19:17.240Z,0.449
2023-01-22T07:20:17.187Z,1.200
2023-01-22T07:21:17.123Z,1.360
2023-01-22T07:22:16.418Z,1.360
2023-01-22T07:23:16.751Z,2.349
2023-01-22T07:24:17.203Z,2.450
2023-01-22T07:25:16.892Z,2.539
2023-01-22T07:26:17.072Z,3.630
2023-01-22T07:27:16.727Z,3.319
2023-01-22T07:28:16.923Z,3.109
2023-01-22T07:29:17.187Z,4.050
2023-01-22T07:30:17.332Z,4.969
2023-01-22T07:31:16.930Z,5.380
2023-01-22T07:32:16.494Z,6.25
2023-01-22T07:33:16.951Z,6.389
2023-01-22T07:34:16.802Z,6.309
2023-01-22T07:35:16.885Z,7.690
2023-01-22T07:36:16.666Z,9.010
2023-01-22T07:37:16.870Z,10.96
2023-01-22T07:38:16.561Z,12.81
2023-01-22T07:39:17.359Z,13.03
2023-01-22T07:40:17.325Z,13.60
2023-01-22T07:41:25.504Z,12.21
2023-01-22T07:42:16.895Z,12.11
2023-01-22T07:43:17.109Z,13.5
2023-01-22T07:44:16.699Z,14.36
2023-01-22T07:45:17.463Z,15.81
2023-01-22T07:46:17.113Z,15.48
2023-01-22T07:47:16.716Z,16.03
2023-01-22T07:48:17.036Z,17.43
2023-01-22T07:49:16.629Z,18.12
2023-01-22T07:50:17.351Z,17.72
2023-01-22T07:51:17.458Z,17.73
2023-01-22T07:52:17.005Z,18.04
2023-01-22T07:53:16.932Z,18.73
2023-01-22T07:54:18.576Z,18.73
2023-01-22T07:55:17.147Z,18.63
2023-01-22T07:56:16.443Z,19.34
2023-01-22T07:57:17.239Z,19.04
2023-01-22T07:58:17.110Z,18.73
2023-01-22T07:59:16.930Z,19.04
2023-01-22T08:00:18.459Z,19.45
2023-01-22T08:01:16.494Z,21.05
2023-01-22T08:02:17.171Z,22.77
2023-01-22T08:03:16.654Z,23.27
2023-01-22T08:04:17.008Z,24.88
2023-01-22T08:05:16.856Z,26.70
2023-01-22T08:06:17.215Z,27.80
2023-01-22T08:07:16.746Z,28.5
2023-01-22T08:08:17.209Z,28.67
2023-01-22T08:09:16.963Z,30.53
2023-01-22T08:10:17.194Z,32.52
2023-01-22T08:11:17.186Z,32.63
2023-01-22T08:12:16.734Z,31.43
2023-01-22T08:13:16.761Z,30.12
2023-01-22T08:14:17.214Z,31.62
2023-01-22T08:15:17.089Z,32.90
2023-01-22T08:16:16.646Z,34.20
2023-01-22T08:17:16.467Z,34.15
2023-01-22T08:18:19.117Z,35.75
2023-01-22T08:19:16.730Z,36.75
2023-01-22T08:20:17.457Z,37.52
2023-01-22T08:21:16.702Z,37.68
2023-01-22T08:22:17.061Z,38.47
2023-01-22T08:23:17.125Z,40.02
2023-01-22T08:24:17.130Z,42.5
2023-01-22T08:25:16.598Z,45.02
2023-01-22T08:26:17.077Z,46.54
2023-01-22T08:27:16.793Z,45.22
2023-01-22T08:28:17.508Z,44.22
2023-01-22T08:29:17.091Z,45.79
2023-01-22T08:30:17.588Z,46.34
2023-01-22T08:31:27.342Z,47.09
2023-01-22T08:32:17.048Z,46.54
2023-01-22T08:33:16.529Z,47.43
2023-01-22T08:34:16.897Z,47.95
2023-01-22T08:35:17.570Z,49.90
2023-01-22T08:36:17.035Z,52.18
2023-01-22T08:37:16.899Z,53.84
2023-01-22T08:38:17.342Z,54.84
2023-01-22T08:39:17.028Z,57.40
2023-01-22T08:40:17.028Z,59.18
2023-01-22T08:41:16.781Z,59.5
2023-01-22T08:42:17.208Z,61.75
2023-01-22T08:43:17.141Z,63.31
2023-01-22T08:44:16.882Z,65.62
2023-01-22T08:45:17.553Z,67.69
2023-01-22T08:46:16.876Z,68.69
2023-01-22T08:47:17.491Z,70.12
2023-01-22T08:48:17.361Z,70.22
2023-01-22T08:49:16.967Z,73
2023-01-22T08:50:17.438Z,77.40
2023-01-22T08:51:17.065Z,81.69
2023-01-22T08:52:16.981Z,85.5
2023-01-22T08:53:16.876Z,86.55
2023-01-22T08:54:16.630Z,86.30
2023-01-22T08:55:17.052Z,87.30
2023-01-22T08:56:16.813Z,90.76
2023-01-22T08:57:17.203Z,94.69
2023-01-22T08:58:17.036Z,100.3
2023-01-22T08:59:16.967Z,101.5
2023-01-22T09:00:18.087Z,100.0
2023-01-22T09:01:17.035Z,101.0
2023-01-22T09:02:17.380Z,104.4
2023-01-22T09:03:16.371Z,107
2023-01-22T09:04:17.283Z,109.8
2023-01-22T09:05:16.973Z,109.8
2023-01-22T09:06:17.021Z,106.1
2023-01-22T09:07:16.867Z,104.6
2023-01-22T09:08:17.276Z,105.1
2023-01-22T09:09:17.158Z,104.9
2023-01-22T09:10:18.383Z,106.9
2023-01-22T09:11:16.934Z,105.6
2023-01-22T09:12:21.724Z,105.0
2023-01-22T09:13:17.443Z,105.5
2023-01-22T09:14:17.310Z,108.9
2023-01-22T09:15:17.284Z,108.8
2023-01-22T09:16:17.022Z,111.5
2023-01-22T09:17:17.091Z,118.9
2023-01-22T09:18:15.123Z,125.5
2023-01-22T09:19:16.915Z,131
2023-01-22T09:20:17.451Z,133.8
2023-01-22T09:21:17.083Z,138.3
2023-01-22T09:22:16.638Z,143.1
2023-01-22T09:23:16.727Z,141.6
2023-01-22T09:24:16.698Z,140.5
2023-01-22T09:25:17.299Z,139.1
2023-01-22T09:26:16.487Z,136.1
2023-01-22T09:27:17.140Z,136.3
2023-01-22T09:28:30.869Z,143.1
2023-01-22T09:29:17.255Z,149.6
2023-01-22T09:30:17.273Z,151.7
2023-01-22T09:31:17.138Z,152.9
2023-01-22T09:32:16.895Z,152.1
2023-01-22T09:33:16.554Z,150.4
2023-01-22T09:34:16.993Z,151.3
2023-01-22T09:35:16.762Z,157.6
2023-01-22T09:36:17.380Z,167
2023-01-22T09:37:17.029Z,176.3
2023-01-22T09:38:16.780Z,180.6
2023-01-22T09:39:17.123Z,180.2
2023-01-22T09:40:17.106Z,183.3
2023-01-22T09:41:16.992Z,191.3
2023-01-22T09:42:16.763Z,197.6
2023-01-22T09:43:17.110Z,199.6
2023-01-22T09:44:16.714Z,194.1
2023-01-22T09:45:17.381Z,183
2023-01-22T09:46:17.012Z,171
2023-01-22T09:47:16.751Z,160.6
2023-01-22T09:48:17.312Z,153.3
2023-01-22T09:49:17.196Z,153.9
2023-01-22T09:50:17.456Z,157.8
2023-01-22T09:51:17.248Z,160.7
2023-01-22T09:52:17.118Z,158.6
2023-01-22T09:53:17.062Z,152
2023-01-22T09:54:16.868Z,146.6
2023-01-22T09:55:17.007Z,144.6
2023-01-22T09:56:17.008Z,147.8
2023-01-22T09:57:30.804Z,155.8
2023-01-22T09:58:17.164Z,165.1
2023-01-22T09:59:17.047Z,171.3
2023-01-22T10:00:18.164Z,174.1
2023-01-22T10:01:17.331Z,180
2023-01-22T10:02:17.295Z,184
2023-01-22T10:03:17.253Z,181.8
2023-01-22T10:04:17.051Z,173
2023-01-22T10:05:17.226Z,167.8
2023-01-22T10:06:17.002Z,166.1
2023-01-22T10:07:16.818Z,161.3
2023-01-22T10:08:16.799Z,158.0
2023-01-22T10:09:17.470Z,162.1
2023-01-22T10:10:17.699Z,169.3
2023-01-22T10:11:16.784Z,172.6
2023-01-22T10:12:17.237Z,173.6
2023-01-22T10:13:17.338Z,177.5
2023-01-22T10:14:16.876Z,182.8
2023-01-22T10:15:16.878Z,186.8
2023-01-22T10:16:17.524Z,193
2023-01-22T10:17:17.312Z,196
2023-01-22T10:18:17.063Z,199.2
2023-01-22T10:19:17.447Z,201.8
2023-01-22T10:20:17.611Z,199.6
2023-01-22T10:21:17.346Z,191.6
2023-01-22T10:22:16.974Z,187.1
2023-01-22T10:23:16.777Z,180.5
2023-01-22T10:24:17.016Z,174.8
2023-01-22T10:25:17.043Z,172.0
2023-01-22T10:26:16.913Z,173.2
2023-01-22T10:27:17.087Z,171.4
2023-01-22T10:28:16.762Z,168
2023-01-22T10:29:16.702Z,163.9
2023-01-22T10:30:18.065Z,164.6
2023-01-22T10:31:17.311Z,168
2023-01-22T10:32:17.387Z,170.1
2023-01-22T10:33:17.066Z,174.8
2023-01-22T10:34:16.989Z,173.3
2023-01-22T10:35:17.076Z,171.4
2023-01-22T10:36:16.945Z,167.1
2023-01-22T10:37:17.001Z,165.3
2023-01-22T10:38:17.248Z,163.1
2023-01-22T10:39:17.219Z,163.2
2023-01-22T10:40:17.471Z,167.1
2023-01-22T10:41:17.583Z,170.4
2023-01-22T10:42:16.847Z,173.8
2023-01-22T10:43:16.882Z,179.8
2023-01-22T10:44:17.208Z,184.2
2023-01-22T10:45:17.474Z,180
2023-01-22T10:46:17.459Z,175
2023-01-22T10:47:16.566Z,175.3
2023-01-22T10:48:17.543Z,174.1
2023-01-22T10:49:17.462Z,168
2023-01-22T10:50:17.054Z,163.1
2023-01-22T10:51:17.231Z,162.8
2023-01-22T10:52:17.010Z,162.3
2023-01-22T10:53:17.138Z,165.1
2023-01-22T10:54:17.417Z,174
2023-01-22T10:55:17.479Z,181.3
2023-01-22T10:56:17.678Z,178.3
2023-01-22T10:57:17.325Z,172.3
2023-01-22T10:58:17.283Z,176.1
2023-01-22T10:59:16.725Z,179.8
2023-01-22T11:00:17.782Z,184.5
2023-01-22T11:01:17.479Z,193
2023-01-22T11:02:17.434Z,203
2023-01-22T11:03:17.247Z,210.6
2023-01-22T11:04:17.280Z,213.7
2023-01-22T11:05:17.292Z,210.5
2023-01-22T11:06:17.242Z,211
2023-01-22T11:07:16.976Z,209.6
2023-01-22T11:08:17.204Z,205.8
2023-01-22T11:09:16.950Z,196
2023-01-22T11:10:18.076Z,188.8
2023-01-22T11:11:16.839Z,184.6
2023-01-22T11:12:16.878Z,185.6
2023-01-22T11:13:17.224Z,190.5
2023-01-22T11:14:17.104Z,197
2023-01-22T11:15:17.166Z,201.8
2023-01-22T11:16:17.290Z,204.3
2023-01-22T11:17:17.442Z,204.8
2023-01-22T11:18:17.348Z,209.5
2023-01-22T11:19:23.824Z,216
2023-01-22T11:20:17.217Z,220.4
2023-01-22T11:21:17.304Z,220.1
2023-01-22T11:22:17.080Z,221.7
2023-01-22T11:23:16.825Z,220.6
2023-01-22T11:24:16.466Z,219.4
2023-01-22T11:25:17.519Z,216.6
2023-01-22T11:26:17.433Z,216.6
2023-01-22T11:27:17.427Z,219.5
2023-01-22T11:28:17.374Z,219.3
2023-01-22T11:29:16.869Z,225.1
2023-01-22T11:30:19.821Z,227.9
2023-01-22T11:31:17.199Z,231.8
2023-01-22T11:32:17.281Z,240.8
2023-01-22T11:33:17.358Z,248.6
2023-01-22T11:34:17.627Z,250.6
2023-01-22T11:35:17.719Z,249.6
2023-01-22T11:36:17.092Z,249.6
2023-01-22T11:37:17.142Z,258
2023-01-22T11:38:17.104Z,260.8
2023-01-22T11:39:25.184Z,264.3
2023-01-22T11:40:17.922Z,272.2
2023-01-22T11:41:17.305Z,273.8
2023-01-22T11:42:17.472Z,270.7
2023-01-22T11:43:17.423Z,270.7
2023-01-22T11:44:17.400Z,270.7
2023-01-22T11:45:17.772Z,269.8
2023-01-22T11:46:17.032Z,263.1
2023-01-22T11:47:17.366Z,259.4
2023-01-22T11:48:17.287Z,255.6
2023-01-22T11:49:17.166Z,251.1
2023-01-22T11:50:17.711Z,244
2023-01-22T11:51:17.212Z,236.1
2023-01-22T11:52:17.284Z,229.8
2023-01-22T11:53:17.097Z,226.1
2023-01-22T11:54:16.968Z,222.5
2023-01-22T11:55:17.316Z,221.6
2023-01-22T11:56:17.115Z,218.4
2023-01-22T11:57:17.439Z,217.1
2023-01-22T11:58:17.453Z,218.1
2023-01-22T11:59:17.476Z,217.4
2023-01-22T12:00:18.890Z,218.1
2023-01-22T12:01:17.392Z,219.5
2023-01-22T12:02:17.468Z,220.3
2023-01-22T12:03:17.518Z,216.1
2023-01-22T12:04:17.403Z,209
2023-01-22T12:05:17.451Z,196
2023-01-22T12:06:17.566Z,184
2023-01-22T12:07:17.615Z,176.8
2023-01-22T12:08:17.321Z,172.8
2023-01-22T12:09:17.622Z,169.9
2023-01-22T12:10:18.073Z,165.8
2023-01-22T12:11:17.364Z,162.3
2023-01-22T12:12:17.711Z,159.9
2023-01-22T12:13:17.287Z,158.5
2023-01-22T12:14:17.295Z,161.6
2023-01-22T12:15:17.886Z,162.6
2023-01-22T12:16:16.847Z,166.3
2023-01-22T12:17:17.575Z,166.7
2023-01-22T12:18:17.163Z,165.8
2023-01-22T12:19:17.145Z,163.1
2023-01-22T12:20:17.949Z,158.3
2023-01-22T12:21:17.266Z,151.6
2023-01-22T12:22:17.665Z,149.4
2023-01-22T12:24:17.832Z,147.0
2023-01-22T12:25:17.440Z,145.3
2023-01-22T12:26:17.656Z,142.1
2023-01-22T12:27:17.647Z,143.4
2023-01-22T12:28:17.026Z,145.5
2023-01-22T12:29:16.986Z,144.8
2023-01-22T12:30:17.569Z,142.6
2023-01-22T12:31:17.242Z,139.3
2023-01-22T12:32:17.370Z,137.8
2023-01-22T12:33:17.097Z,136.4
2023-01-22T12:34:16.920Z,134.2
2023-01-22T12:35:17.136Z,134.1
2023-01-22T12:36:17.586Z,136.3
2023-01-22T12:37:16.904Z,140.1
2023-01-22T12:38:17.645Z,142.0
2023-01-22T12:39:17.714Z,140.5
2023-01-22T12:40:17.473Z,138.0
2023-01-22T12:41:17.035Z,136.1
2023-01-22T12:42:17.320Z,135.0
2023-01-22T12:43:17.252Z,136.3
2023-01-22T12:44:17.046Z,138.5
2023-01-22T12:45:17.443Z,138.7
2023-01-22T12:46:17.335Z,138.7
2023-01-22T12:47:17.409Z,136.8
2023-01-22T12:48:17.530Z,135.8
2023-01-22T12:49:17.555Z,135.4
2023-01-22T12:50:17.863Z,133.9
2023-01-22T12:51:17.087Z,133.3
2023-01-22T12:52:16.906Z,130.5
2023-01-22T12:53:17.216Z,127.6
2023-01-22T12:54:17.072Z,125.9
2023-01-22T12:55:17.397Z,123
2023-01-22T12:56:17.409Z,121.3
2023-01-22T12:57:17.210Z,118.3
2023-01-22T12:58:17.019Z,118.1
2023-01-22T12:59:17.194Z,120.8
2023-01-22T13:00:18.010Z,123.1
2023-01-22T13:01:17.003Z,123.5
2023-01-22T13:02:17.159Z,121.1
2023-01-22T13:03:30.246Z,115.9
2023-01-22T13:04:17.221Z,113.0
2023-01-22T13:05:17.370Z,110.4
2023-01-22T13:06:17.133Z,112.0
2023-01-22T13:07:17.153Z,113.0
2023-01-22T13:08:17.252Z,113.5
2023-01-22T13:09:17.445Z,111.7
2023-01-22T13:10:17.634Z,112.4
2023-01-22T13:11:17.473Z,114.2
2023-01-22T13:12:16.937Z,114.8
2023-01-22T13:13:16.904Z,114.5
2023-01-22T13:14:16.939Z,112.3
2023-01-22T13:15:17.117Z,108.4
2023-01-22T13:16:17.231Z,107.5
2023-01-22T13:17:17.137Z,108.3
2023-01-22T13:18:17.091Z,110.0
2023-01-22T13:19:16.843Z,110.1
2023-01-22T13:20:17.640Z,111.3
2023-01-22T13:21:16.903Z,111.7
2023-01-22T13:22:17.464Z,110.9
2023-01-22T13:23:17.060Z,108.8
2023-01-22T13:24:17.155Z,108.4
2023-01-22T13:25:17.339Z,107.5
2023-01-22T13:26:17.150Z,106.4
2023-01-22T13:27:16.694Z,102.9
2023-01-22T13:28:17.160Z,101.4
2023-01-22T13:29:17.152Z,100.3
2023-01-22T13:30:17.723Z,98.87
2023-01-22T13:31:17.136Z,97.20
2023-01-22T13:32:16.839Z,95.5
2023-01-22T13:33:16.821Z,92.90
2023-01-22T13:34:16.381Z,91.16
2023-01-22T13:35:19.813Z,90.77
2023-01-22T13:36:16.923Z,90.05
2023-01-22T13:37:16.735Z,92.40
2023-01-22T13:38:17.282Z,95.58
2023-01-22T13:39:16.873Z,97.58
2023-01-22T13:40:17.784Z,97.31
2023-01-22T13:41:17.173Z,96.80
2023-01-22T13:42:17.005Z,95.55
2023-01-22T13:43:16.405Z,95.61
2023-01-22T13:44:16.860Z,95.90
2023-01-22T13:45:17.067Z,96.70